sensor_id;sensor_type;location;lat;lon;timestamp;P1;durP1;ratioP1;P2;durP2;ratioP2
20090;SDS011;10205;49.678;6.560;2023-02-28T00:01:20;2.40;;;2.20;;
20090;SDS011;10205;49.678;6.560;2023-02-28T00:03:48;4.07;;;2.50;;
20090;SDS011;10205;49.678;6.560;2023-02-28T00:06:15;3.07;;;2.30;;
20090;SDS011;10205;49.678;6.560;2023-02-28T00:08:43;3.67;;;2.57;;
20090;SDS011;10205;49.678;6.560;2023-02-28T00:11:11;3.23;;;2.43;;
20090;SDS011;10205;49.678;6.560;2023-02-28T00:13:42;3.20;;;2.63;;
20090;SDS011;10205;49.678;6.560;2023-02-28T00:16:13;2.20;;;2.10;;
20090;SDS011;10205;49.678;6.560;2023-02-28T00:18:43;2.37;;;2.17;;
20090;SDS011;10205;49.678;6.560;2023-02-28T00:21:14;2.37;;;2.13;;
20090;SDS011;10205;49.678;6.560;2023-02-28T00:23:45;2.37;;;2.17;;
20090;SDS011;10205;49.678;6.560;2023-02-28T00:26:12;2.47;;;2.20;;
20090;SDS011;10205;49.678;6.560;2023-02-28T00:28:41;5.00;;;2.77;;
20090;SDS011;10205;49.678;6.560;2023-02-28T00:31:08;2.60;;;2.13;;
20090;SDS011;10205;49.678;6.560;2023-02-28T00:33:35;2.10;;;1.97;;
20090;SDS011;10205;49.678;6.560;2023-02-28T00:36:03;2.77;;;2.50;;
20090;SDS011;10205;49.678;6.560;2023-02-28T00:38:33;2.80;;;2.60;;
20090;SDS011;10205;49.678;6.560;2023-02-28T00:41:01;3.80;;;2.60;;
20090;SDS011;10205;49.678;6.560;2023-02-28T00:43:30;2.30;;;2.10;;
20090;SDS011;10205;49.678;6.560;2023-02-28T00:46:00;4.10;;;2.63;;
20090;SDS011;10205;49.678;6.560;2023-02-28T00:48:28;2.40;;;2.20;;
20090;SDS011;10205;49.678;6.560;2023-02-28T00:50:55;3.40;;;2.30;;
20090;SDS011;10205;49.678;6.560;2023-02-28T00:53:22;3.10;;;2.43;;
20090;SDS011;10205;49.678;6.560;2023-02-28T00:55:49;2.73;;;2.23;;
20090;SDS011;10205;49.678;6.560;2023-02-28T00:58:16;4.13;;;2.87;;
20090;SDS011;10205;49.678;6.560;2023-02-28T01:00:44;3.73;;;2.50;;
20090;SDS011;10205;49.678;6.560;2023-02-28T01:03:16;2.63;;;2.43;;
20090;SDS011;10205;49.678;6.560;2023-02-28T01:05:44;4.17;;;2.47;;
20090;SDS011;10205;49.678;6.560;2023-02-28T01:08:13;7.70;;;3.20;;
20090;SDS011;10205;49.678;6.560;2023-02-28T01:10:41;3.70;;;3.07;;
20090;SDS011;10205;49.678;6.560;2023-02-28T01:13:08;5.03;;;3.00;;
20090;SDS011;10205;49.678;6.560;2023-02-28T01:15:38;4.00;;;2.80;;
20090;SDS011;10205;49.678;6.560;2023-02-28T01:18:09;3.70;;;2.80;;
20090;SDS011;10205;49.678;6.560;2023-02-28T01:20:38;3.03;;;2.33;;
20090;SDS011;10205;49.678;6.560;2023-02-28T01:23:06;2.67;;;2.40;;
20090;SDS011;10205;49.678;6.560;2023-02-28T01:25:34;2.87;;;2.40;;
20090;SDS011;10205;49.678;6.560;2023-02-28T01:28:01;3.97;;;3.00;;
20090;SDS011;10205;49.678;6.560;2023-02-28T01:30:28;3.57;;;3.07;;
20090;SDS011;10205;49.678;6.560;2023-02-28T01:32:55;4.07;;;2.60;;
20090;SDS011;10205;49.678;6.560;2023-02-28T01:35:22;3.73;;;2.87;;
20090;SDS011;10205;49.678;6.560;2023-02-28T01:37:50;3.30;;;2.80;;
20090;SDS011;10205;49.678;6.560;2023-02-28T01:40:17;2.87;;;2.20;;
20090;SDS011;10205;49.678;6.560;2023-02-28T01:42:45;4.13;;;2.53;;
20090;SDS011;10205;49.678;6.560;2023-02-28T01:45:18;2.60;;;2.40;;
20090;SDS011;10205;49.678;6.560;2023-02-28T01:47:52;2.47;;;2.27;;
20090;SDS011;10205;49.678;6.560;2023-02-28T01:50:24;2.50;;;2.27;;
20090;SDS011;10205;49.678;6.560;2023-02-28T01:52:57;3.03;;;2.37;;
20090;SDS011;10205;49.678;6.560;2023-02-28T01:55:29;3.27;;;2.80;;
20090;SDS011;10205;49.678;6.560;2023-02-28T01:57:58;2.87;;;2.30;;
20090;SDS011;10205;49.678;6.560;2023-02-28T02:00:30;3.03;;;2.20;;
20090;SDS011;10205;49.678;6.560;2023-02-28T02:02:59;2.73;;;2.43;;
20090;SDS011;10205;49.678;6.560;2023-02-28T02:05:34;2.63;;;2.20;;
20090;SDS011;10205;49.678;6.560;2023-02-28T02:08:08;2.17;;;1.97;;
20090;SDS011;10205;49.678;6.560;2023-02-28T02:10:39;2.80;;;2.20;;
20090;SDS011;10205;49.678;6.560;2023-02-28T02:13:19;2.30;;;2.10;;
20090;SDS011;10205;49.678;6.560;2023-02-28T02:16:10;3.03;;;2.60;;
20090;SDS011;10205;49.678;6.560;2023-02-28T02:18:55;2.40;;;2.20;;
20090;SDS011;10205;49.678;6.560;2023-02-28T02:25:00;2.63;;;2.17;;
20090;SDS011;10205;49.678;6.560;2023-02-28T02:27:54;2.50;;;2.30;;
20090;SDS011;10205;49.678;6.560;2023-02-28T02:34:25;2.77;;;2.23;;
20090;SDS011;10205;49.678;6.560;2023-02-28T02:37:07;2.50;;;2.17;;
20090;SDS011;10205;49.678;6.560;2023-02-28T02:39:48;2.23;;;1.87;;
20090;SDS011;10205;49.678;6.560;2023-02-28T02:42:25;2.40;;;2.13;;
20090;SDS011;10205;49.678;6.560;2023-02-28T02:45:00;2.53;;;2.03;;
20090;SDS011;10205;49.678;6.560;2023-02-28T02:47:35;2.07;;;1.90;;
20090;SDS011;10205;49.678;6.560;2023-02-28T02:50:11;2.17;;;1.97;;
20090;SDS011;10205;49.678;6.560;2023-02-28T02:52:46;2.27;;;2.07;;
20090;SDS011;10205;49.678;6.560;2023-02-28T02:55:20;2.37;;;2.10;;
20090;SDS011;10205;49.678;6.560;2023-02-28T02:57:51;2.33;;;2.13;;
20090;SDS011;10205;49.678;6.560;2023-02-28T03:00:23;1.97;;;1.87;;
20090;SDS011;10205;49.678;6.560;2023-02-28T03:02:57;2.33;;;2.00;;
20090;SDS011;10205;49.678;6.560;2023-02-28T03:05:29;3.07;;;2.33;;
20090;SDS011;10205;49.678;6.560;2023-02-28T03:08:05;2.33;;;2.13;;
20090;SDS011;10205;49.678;6.560;2023-02-28T03:10:34;2.37;;;2.17;;
20090;SDS011;10205;49.678;6.560;2023-02-28T03:13:12;2.17;;;1.87;;
20090;SDS011;10205;49.678;6.560;2023-02-28T03:16:12;2.10;;;1.90;;
20090;SDS011;10205;49.678;6.560;2023-02-28T03:19:20;2.27;;;2.07;;
20090;SDS011;10205;49.678;6.560;2023-02-28T03:22:09;2.47;;;2.27;;
20090;SDS011;10205;49.678;6.560;2023-02-28T03:25:01;3.13;;;2.73;;
20090;SDS011;10205;49.678;6.560;2023-02-28T03:27:39;2.40;;;2.20;;
20090;SDS011;10205;49.678;6.560;2023-02-28T03:30:22;2.20;;;2.00;;
20090;SDS011;10205;49.678;6.560;2023-02-28T03:32:55;2.47;;;2.00;;
20090;SDS011;10205;49.678;6.560;2023-02-28T03:35:31;2.33;;;2.13;;
20090;SDS011;10205;49.678;6.560;2023-02-28T03:38:05;2.50;;;2.03;;
20090;SDS011;10205;49.678;6.560;2023-02-28T03:40:41;2.47;;;1.93;;
20090;SDS011;10205;49.678;6.560;2023-02-28T03:43:20;2.00;;;1.90;;
20090;SDS011;10205;49.678;6.560;2023-02-28T03:45:54;3.73;;;2.43;;
20090;SDS011;10205;49.678;6.560;2023-02-28T03:48:27;2.57;;;2.37;;
20090;SDS011;10205;49.678;6.560;2023-02-28T03:51:03;2.43;;;2.23;;
20090;SDS011;10205;49.678;6.560;2023-02-28T03:53:40;2.53;;;2.30;;
20090;SDS011;10205;49.678;6.560;2023-02-28T03:56:14;2.40;;;2.20;;
20090;SDS011;10205;49.678;6.560;2023-02-28T03:58:47;2.07;;;1.97;;
20090;SDS011;10205;49.678;6.560;2023-02-28T04:01:24;3.10;;;2.57;;
20090;SDS011;10205;49.678;6.560;2023-02-28T04:03:59;3.00;;;2.37;;
20090;SDS011;10205;49.678;6.560;2023-02-28T04:06:27;2.60;;;2.40;;
20090;SDS011;10205;49.678;6.560;2023-02-28T04:09:00;2.50;;;2.30;;
20090;SDS011;10205;49.678;6.560;2023-02-28T04:11:30;2.40;;;2.20;;
20090;SDS011;10205;49.678;6.560;2023-02-28T04:14:01;3.30;;;2.20;;
20090;SDS011;10205;49.678;6.560;2023-02-28T04:16:29;2.77;;;2.17;;
20090;SDS011;10205;49.678;6.560;2023-02-28T04:18:58;3.70;;;2.43;;
20090;SDS011;10205;49.678;6.560;2023-02-28T04:21:28;3.70;;;2.50;;
20090;SDS011;10205;49.678;6.560;2023-02-28T04:23:56;2.30;;;2.10;;
20090;SDS011;10205;49.678;6.560;2023-02-28T04:26:28;2.77;;;2.57;;
20090;SDS011;10205;49.678;6.560;2023-02-28T04:28:59;2.30;;;2.17;;
20090;SDS011;10205;49.678;6.560;2023-02-28T04:31:28;2.43;;;2.23;;
20090;SDS011;10205;49.678;6.560;2023-02-28T04:33:55;2.63;;;2.27;;
20090;SDS011;10205;49.678;6.560;2023-02-28T04:36:22;2.53;;;2.33;;
20090;SDS011;10205;49.678;6.560;2023-02-28T04:38:49;3.63;;;2.50;;
20090;SDS011;10205;49.678;6.560;2023-02-28T04:41:17;2.53;;;2.33;;
20090;SDS011;10205;49.678;6.560;2023-02-28T04:43:45;2.50;;;2.30;;
20090;SDS011;10205;49.678;6.560;2023-02-28T04:46:13;3.63;;;2.30;;
20090;SDS011;10205;49.678;6.560;2023-02-28T04:48:43;2.70;;;2.30;;
20090;SDS011;10205;49.678;6.560;2023-02-28T04:51:12;2.07;;;1.93;;
20090;SDS011;10205;49.678;6.560;2023-02-28T04:53:41;2.60;;;2.40;;
20090;SDS011;10205;49.678;6.560;2023-02-28T04:56:10;4.03;;;2.60;;
20090;SDS011;10205;49.678;6.560;2023-02-28T04:58:42;2.60;;;2.30;;
20090;SDS011;10205;49.678;6.560;2023-02-28T05:01:19;2.57;;;2.37;;
20090;SDS011;10205;49.678;6.560;2023-02-28T05:03:53;2.93;;;2.47;;
20090;SDS011;10205;49.678;6.560;2023-02-28T05:06:27;2.60;;;2.40;;
20090;SDS011;10205;49.678;6.560;2023-02-28T05:08:57;2.30;;;2.10;;
20090;SDS011;10205;49.678;6.560;2023-02-28T05:11:25;2.27;;;2.10;;
20090;SDS011;10205;49.678;6.560;2023-02-28T05:13:58;3.53;;;2.73;;
20090;SDS011;10205;49.678;6.560;2023-02-28T05:16:35;2.60;;;2.33;;
20090;SDS011;10205;49.678;6.560;2023-02-28T05:19:04;3.57;;;2.20;;
20090;SDS011;10205;49.678;6.560;2023-02-28T05:21:32;2.93;;;2.57;;
20090;SDS011;10205;49.678;6.560;2023-02-28T05:24:02;2.90;;;2.60;;
20090;SDS011;10205;49.678;6.560;2023-02-28T05:26:33;2.83;;;2.37;;
20090;SDS011;10205;49.678;6.560;2023-02-28T05:29:02;3.10;;;2.70;;
20090;SDS011;10205;49.678;6.560;2023-02-28T05:31:30;2.87;;;2.47;;
20090;SDS011;10205;49.678;6.560;2023-02-28T05:33:59;3.13;;;2.30;;
20090;SDS011;10205;49.678;6.560;2023-02-28T05:36:26;3.47;;;2.63;;
20090;SDS011;10205;49.678;6.560;2023-02-28T05:38:53;2.83;;;2.63;;
20090;SDS011;10205;49.678;6.560;2023-02-28T05:41:20;4.50;;;3.00;;
20090;SDS011;10205;49.678;6.560;2023-02-28T05:43:48;3.87;;;2.80;;
20090;SDS011;10205;49.678;6.560;2023-02-28T05:46:15;3.40;;;2.37;;
20090;SDS011;10205;49.678;6.560;2023-02-28T05:48:45;2.97;;;2.70;;
20090;SDS011;10205;49.678;6.560;2023-02-28T05:51:15;3.90;;;3.00;;
20090;SDS011;10205;49.678;6.560;2023-02-28T05:53:43;3.33;;;2.83;;
20090;SDS011;10205;49.678;6.560;2023-02-28T05:56:10;3.57;;;2.97;;
20090;SDS011;10205;49.678;6.560;2023-02-28T05:58:37;6.70;;;2.90;;
20090;SDS011;10205;49.678;6.560;2023-02-28T06:01:19;4.50;;;3.17;;
20090;SDS011;10205;49.678;6.560;2023-02-28T06:03:56;3.63;;;2.90;;
20090;SDS011;10205;49.678;6.560;2023-02-28T06:06:26;2.87;;;2.67;;
20090;SDS011;10205;49.678;6.560;2023-02-28T06:08:54;5.10;;;3.10;;
20090;SDS011;10205;49.678;6.560;2023-02-28T06:11:21;3.77;;;3.10;;
20090;SDS011;10205;49.678;6.560;2023-02-28T06:13:53;3.53;;;3.17;;
20090;SDS011;10205;49.678;6.560;2023-02-28T06:16:21;4.97;;;3.33;;
20090;SDS011;10205;49.678;6.560;2023-02-28T06:18:52;4.63;;;3.63;;
20090;SDS011;10205;49.678;6.560;2023-02-28T06:21:21;4.07;;;3.33;;
20090;SDS011;10205;49.678;6.560;2023-02-28T06:23:49;5.73;;;3.57;;
20090;SDS011;10205;49.678;6.560;2023-02-28T06:26:17;3.47;;;3.17;;
20090;SDS011;10205;49.678;6.560;2023-02-28T06:28:44;5.63;;;3.97;;
20090;SDS011;10205;49.678;6.560;2023-02-28T06:31:12;7.60;;;4.27;;
20090;SDS011;10205;49.678;6.560;2023-02-28T06:33:41;5.43;;;4.23;;
20090;SDS011;10205;49.678;6.560;2023-02-28T06:36:10;4.97;;;3.60;;
20090;SDS011;10205;49.678;6.560;2023-02-28T06:38:40;4.90;;;3.70;;
20090;SDS011;10205;49.678;6.560;2023-02-28T06:41:09;4.50;;;3.53;;
20090;SDS011;10205;49.678;6.560;2023-02-28T06:43:38;6.03;;;4.10;;
20090;SDS011;10205;49.678;6.560;2023-02-28T06:46:08;5.33;;;3.37;;
20090;SDS011;10205;49.678;6.560;2023-02-28T06:48:39;7.87;;;4.40;;
20090;SDS011;10205;49.678;6.560;2023-02-28T06:51:08;4.27;;;3.43;;
20090;SDS011;10205;49.678;6.560;2023-02-28T06:53:38;7.13;;;3.43;;
20090;SDS011;10205;49.678;6.560;2023-02-28T06:56:06;5.30;;;3.53;;
20090;SDS011;10205;49.678;6.560;2023-02-28T06:58:36;4.33;;;3.47;;
20090;SDS011;10205;49.678;6.560;2023-02-28T07:01:04;4.10;;;3.70;;
20090;SDS011;10205;49.678;6.560;2023-02-28T07:03:32;5.83;;;3.83;;
20090;SDS011;10205;49.678;6.560;2023-02-28T07:06:02;4.60;;;3.57;;
20090;SDS011;10205;49.678;6.560;2023-02-28T07:08:31;4.13;;;3.50;;
20090;SDS011;10205;49.678;6.560;2023-02-28T07:10:58;4.23;;;3.63;;
20090;SDS011;10205;49.678;6.560;2023-02-28T07:13:27;7.40;;;4.17;;
20090;SDS011;10205;49.678;6.560;2023-02-28T07:15:54;7.47;;;4.30;;
20090;SDS011;10205;49.678;6.560;2023-02-28T07:18:23;4.73;;;3.70;;
20090;SDS011;10205;49.678;6.560;2023-02-28T07:20:51;6.83;;;4.27;;
20090;SDS011;10205;49.678;6.560;2023-02-28T07:23:18;5.63;;;4.00;;
20090;SDS011;10205;49.678;6.560;2023-02-28T07:25:46;6.83;;;4.27;;
20090;SDS011;10205;49.678;6.560;2023-02-28T07:28:17;6.47;;;4.60;;
20090;SDS011;10205;49.678;6.560;2023-02-28T07:30:45;5.13;;;4.00;;
20090;SDS011;10205;49.678;6.560;2023-02-28T07:33:13;6.03;;;4.03;;
20090;SDS011;10205;49.678;6.560;2023-02-28T07:35:40;5.80;;;4.47;;
20090;SDS011;10205;49.678;6.560;2023-02-28T07:38:07;9.80;;;4.50;;
20090;SDS011;10205;49.678;6.560;2023-02-28T07:40:35;6.83;;;4.30;;
20090;SDS011;10205;49.678;6.560;2023-02-28T07:43:05;5.50;;;4.53;;
20090;SDS011;10205;49.678;6.560;2023-02-28T07:45:33;5.00;;;4.50;;
20090;SDS011;10205;49.678;6.560;2023-02-28T07:48:02;5.97;;;4.30;;
20090;SDS011;10205;49.678;6.560;2023-02-28T07:50:29;5.20;;;4.23;;
20090;SDS011;10205;49.678;6.560;2023-02-28T07:52:57;4.73;;;4.07;;
20090;SDS011;10205;49.678;6.560;2023-02-28T07:55:24;4.40;;;4.00;;
20090;SDS011;10205;49.678;6.560;2023-02-28T07:57:51;5.10;;;4.07;;
20090;SDS011;10205;49.678;6.560;2023-02-28T08:00:18;6.30;;;4.00;;
20090;SDS011;10205;49.678;6.560;2023-02-28T08:02:46;5.07;;;4.57;;
20090;SDS011;10205;49.678;6.560;2023-02-28T08:05:14;5.10;;;4.17;;
20090;SDS011;10205;49.678;6.560;2023-02-28T08:07:42;5.40;;;4.43;;
20090;SDS011;10205;49.678;6.560;2023-02-28T08:10:09;4.40;;;3.70;;
20090;SDS011;10205;49.678;6.560;2023-02-28T08:12:37;5.57;;;3.93;;
20090;SDS011;10205;49.678;6.560;2023-02-28T08:15:06;7.13;;;4.10;;
20090;SDS011;10205;49.678;6.560;2023-02-28T08:17:37;5.67;;;4.23;;
20090;SDS011;10205;49.678;6.560;2023-02-28T08:20:04;4.30;;;3.90;;
20090;SDS011;10205;49.678;6.560;2023-02-28T08:22:35;5.00;;;4.20;;
20090;SDS011;10205;49.678;6.560;2023-02-28T08:25:02;4.70;;;4.20;;
20090;SDS011;10205;49.678;6.560;2023-02-28T08:27:32;5.07;;;4.13;;
20090;SDS011;10205;49.678;6.560;2023-02-28T08:29:59;9.00;;;4.33;;
20090;SDS011;10205;49.678;6.560;2023-02-28T08:32:26;5.37;;;4.50;;
20090;SDS011;10205;49.678;6.560;2023-02-28T08:34:53;4.23;;;3.83;;
20090;SDS011;10205;49.678;6.560;2023-02-28T08:37:20;5.33;;;3.90;;
20090;SDS011;10205;49.678;6.560;2023-02-28T08:39:51;5.97;;;4.00;;
20090;SDS011;10205;49.678;6.560;2023-02-28T08:42:18;5.40;;;4.60;;
20090;SDS011;10205;49.678;6.560;2023-02-28T08:44:45;5.27;;;4.10;;
20090;SDS011;10205;49.678;6.560;2023-02-28T08:47:12;5.63;;;4.47;;
20090;SDS011;10205;49.678;6.560;2023-02-28T08:49:39;4.87;;;4.37;;
20090;SDS011;10205;49.678;6.560;2023-02-28T08:52:06;4.83;;;4.33;;
20090;SDS011;10205;49.678;6.560;2023-02-28T08:54:33;4.80;;;3.80;;
20090;SDS011;10205;49.678;6.560;2023-02-28T08:57:03;6.53;;;4.33;;
20090;SDS011;10205;49.678;6.560;2023-02-28T08:59:30;5.17;;;4.27;;
20090;SDS011;10205;49.678;6.560;2023-02-28T09:01:58;5.30;;;3.70;;
20090;SDS011;10205;49.678;6.560;2023-02-28T09:04:25;7.43;;;4.30;;
20090;SDS011;10205;49.678;6.560;2023-02-28T09:06:55;6.03;;;4.40;;
20090;SDS011;10205;49.678;6.560;2023-02-28T09:09:22;4.37;;;3.67;;
20090;SDS011;10205;49.678;6.560;2023-02-28T09:11:49;4.27;;;3.70;;
20090;SDS011;10205;49.678;6.560;2023-02-28T09:14:18;4.13;;;3.73;;
20090;SDS011;10205;49.678;6.560;2023-02-28T09:16:45;6.33;;;3.73;;
20090;SDS011;10205;49.678;6.560;2023-02-28T09:19:12;4.50;;;3.47;;
20090;SDS011;10205;49.678;6.560;2023-02-28T09:21:39;3.97;;;3.57;;
20090;SDS011;10205;49.678;6.560;2023-02-28T09:24:07;3.63;;;3.30;;
20090;SDS011;10205;49.678;6.560;2023-02-28T09:26:36;3.33;;;3.10;;
20090;SDS011;10205;49.678;6.560;2023-02-28T09:29:04;3.97;;;3.43;;
20090;SDS011;10205;49.678;6.560;2023-02-28T09:31:33;3.57;;;3.20;;
20090;SDS011;10205;49.678;6.560;2023-02-28T09:34:00;3.60;;;3.10;;
20090;SDS011;10205;49.678;6.560;2023-02-28T09:36:27;3.40;;;3.10;;
20090;SDS011;10205;49.678;6.560;2023-02-28T09:38:54;3.60;;;3.23;;
20090;SDS011;10205;49.678;6.560;2023-02-28T09:41:22;4.30;;;3.70;;
20090;SDS011;10205;49.678;6.560;2023-02-28T09:43:53;3.60;;;2.97;;
20090;SDS011;10205;49.678;6.560;2023-02-28T09:46:27;4.17;;;3.40;;
20090;SDS011;10205;49.678;6.560;2023-02-28T09:49:00;3.43;;;3.13;;
20090;SDS011;10205;49.678;6.560;2023-02-28T09:51:44;5.00;;;3.30;;
20090;SDS011;10205;49.678;6.560;2023-02-28T09:54:17;3.63;;;3.23;;
20090;SDS011;10205;49.678;6.560;2023-02-28T09:56:48;3.77;;;3.33;;
20090;SDS011;10205;49.678;6.560;2023-02-28T09:59:30;3.40;;;3.10;;
20090;SDS011;10205;49.678;6.560;2023-02-28T10:02:17;3.50;;;3.20;;
20090;SDS011;10205;49.678;6.560;2023-02-28T10:05:13;3.37;;;3.07;;
20090;SDS011;10205;49.678;6.560;2023-02-28T10:07:48;3.30;;;3.00;;
20090;SDS011;10205;49.678;6.560;2023-02-28T10:10:32;4.07;;;3.27;;
20090;SDS011;10205;49.678;6.560;2023-02-28T10:13:05;5.07;;;3.33;;
20090;SDS011;10205;49.678;6.560;2023-02-28T10:15:45;5.73;;;2.90;;
20090;SDS011;10205;49.678;6.560;2023-02-28T10:18:21;3.40;;;3.10;;
20090;SDS011;10205;49.678;6.560;2023-02-28T10:20:53;4.73;;;3.40;;
20090;SDS011;10205;49.678;6.560;2023-02-28T10:23:27;3.43;;;3.13;;
20090;SDS011;10205;49.678;6.560;2023-02-28T10:26:03;6.77;;;3.00;;
20090;SDS011;10205;49.678;6.560;2023-02-28T10:28:38;3.60;;;3.20;;
20090;SDS011;10205;49.678;6.560;2023-02-28T10:31:10;3.80;;;3.40;;
20090;SDS011;10205;49.678;6.560;2023-02-28T10:33:45;3.80;;;3.20;;
20090;SDS011;10205;49.678;6.560;2023-02-28T10:36:14;4.17;;;3.23;;
20090;SDS011;10205;49.678;6.560;2023-02-28T10:38:45;3.80;;;3.17;;
20090;SDS011;10205;49.678;6.560;2023-02-28T10:41:14;3.37;;;3.03;;
20090;SDS011;10205;49.678;6.560;2023-02-28T10:44:11;2.90;;;2.60;;
20090;SDS011;10205;49.678;6.560;2023-02-28T10:46:45;3.20;;;2.90;;
20090;SDS011;10205;49.678;6.560;2023-02-28T10:49:14;3.93;;;3.10;;
20090;SDS011;10205;49.678;6.560;2023-02-28T10:51:47;4.07;;;3.33;;
20090;SDS011;10205;49.678;6.560;2023-02-28T10:54:20;5.50;;;3.30;;
20090;SDS011;10205;49.678;6.560;2023-02-28T10:57:04;4.30;;;3.43;;
20090;SDS011;10205;49.678;6.560;2023-02-28T10:59:35;3.47;;;3.17;;
20090;SDS011;10205;49.678;6.560;2023-02-28T11:02:08;6.10;;;3.27;;
20090;SDS011;10205;49.678;6.560;2023-02-28T11:05:01;4.10;;;3.70;;
20090;SDS011;10205;49.678;6.560;2023-02-28T11:07:29;8.03;;;3.10;;
20090;SDS011;10205;49.678;6.560;2023-02-28T11:09:56;4.37;;;3.53;;
20090;SDS011;10205;49.678;6.560;2023-02-28T11:12:25;3.57;;;3.27;;
20090;SDS011;10205;49.678;6.560;2023-02-28T11:14:57;3.30;;;3.00;;
20090;SDS011;10205;49.678;6.560;2023-02-28T11:17:30;3.53;;;3.17;;
20090;SDS011;10205;49.678;6.560;2023-02-28T11:19:59;3.70;;;3.40;;
20090;SDS011;10205;49.678;6.560;2023-02-28T11:22:33;4.37;;;3.30;;
20090;SDS011;10205;49.678;6.560;2023-02-28T11:25:06;5.87;;;3.70;;
20090;SDS011;10205;49.678;6.560;2023-02-28T11:27:44;3.83;;;3.13;;
20090;SDS011;10205;49.678;6.560;2023-02-28T11:33:21;4.97;;;3.80;;
20090;SDS011;10205;49.678;6.560;2023-02-28T11:35:57;4.30;;;3.10;;
20090;SDS011;10205;49.678;6.560;2023-02-28T11:38:28;4.97;;;4.27;;
20090;SDS011;10205;49.678;6.560;2023-02-28T11:41:04;4.20;;;3.37;;
20090;SDS011;10205;49.678;6.560;2023-02-28T11:43:52;4.57;;;3.90;;
20090;SDS011;10205;49.678;6.560;2023-02-28T11:46:41;3.80;;;3.50;;
20090;SDS011;10205;49.678;6.560;2023-02-28T11:49:19;3.77;;;3.40;;
20090;SDS011;10205;49.678;6.560;2023-02-28T11:52:02;3.33;;;3.03;;
20090;SDS011;10205;49.678;6.560;2023-02-28T11:54:49;3.77;;;3.10;;
20090;SDS011;10205;49.678;6.560;2023-02-28T12:00:44;4.37;;;3.40;;
20090;SDS011;10205;49.678;6.560;2023-02-28T12:03:45;3.63;;;3.33;;
20090;SDS011;10205;49.678;6.560;2023-02-28T12:06:28;3.50;;;3.20;;
20090;SDS011;10205;49.678;6.560;2023-02-28T12:09:08;3.73;;;2.90;;
20090;SDS011;10205;49.678;6.560;2023-02-28T12:11:56;3.87;;;3.37;;
20090;SDS011;10205;49.678;6.560;2023-02-28T12:14:47;4.33;;;3.40;;
20090;SDS011;10205;49.678;6.560;2023-02-28T12:18:04;3.37;;;3.00;;
20090;SDS011;10205;49.678;6.560;2023-02-28T12:20:49;4.30;;;3.67;;
20090;SDS011;10205;49.678;6.560;2023-02-28T12:23:40;3.20;;;2.90;;
20090;SDS011;10205;49.678;6.560;2023-02-28T12:26:26;4.20;;;3.80;;
20090;SDS011;10205;49.678;6.560;2023-02-28T12:29:04;4.00;;;3.63;;
20090;SDS011;10205;49.678;6.560;2023-02-28T12:31:45;3.80;;;3.40;;
20090;SDS011;10205;49.678;6.560;2023-02-28T12:34:18;3.37;;;3.07;;
20090;SDS011;10205;49.678;6.560;2023-02-28T12:36:52;3.73;;;3.20;;
20090;SDS011;10205;49.678;6.560;2023-02-28T12:39:23;3.57;;;3.27;;
20090;SDS011;10205;49.678;6.560;2023-02-28T12:41:56;3.50;;;3.20;;
20090;SDS011;10205;49.678;6.560;2023-02-28T12:44:31;3.80;;;3.37;;
20090;SDS011;10205;49.678;6.560;2023-02-28T12:47:11;3.47;;;3.17;;
20090;SDS011;10205;49.678;6.560;2023-02-28T12:49:44;5.20;;;3.57;;
20090;SDS011;10205;49.678;6.560;2023-02-28T12:52:17;3.90;;;3.50;;
20090;SDS011;10205;49.678;6.560;2023-02-28T12:54:52;3.87;;;3.37;;
20090;SDS011;10205;49.678;6.560;2023-02-28T12:57:28;4.07;;;3.50;;
20090;SDS011;10205;49.678;6.560;2023-02-28T13:00:04;3.77;;;3.47;;
20090;SDS011;10205;49.678;6.560;2023-02-28T13:02:48;4.37;;;3.43;;
20090;SDS011;10205;49.678;6.560;2023-02-28T13:05:59;3.97;;;3.20;;
20090;SDS011;10205;49.678;6.560;2023-02-28T13:08:55;4.73;;;3.77;;
20090;SDS011;10205;49.678;6.560;2023-02-28T13:11:31;3.50;;;3.20;;
20090;SDS011;10205;49.678;6.560;2023-02-28T13:14:15;3.47;;;3.03;;
20090;SDS011;10205;49.678;6.560;2023-02-28T13:16:59;4.00;;;3.60;;
20090;SDS011;10205;49.678;6.560;2023-02-28T13:19:36;3.30;;;3.00;;
20090;SDS011;10205;49.678;6.560;2023-02-28T13:22:15;3.80;;;3.40;;
20090;SDS011;10205;49.678;6.560;2023-02-28T13:24:47;4.03;;;3.10;;
20090;SDS011;10205;49.678;6.560;2023-02-28T13:27:21;4.83;;;3.37;;
20090;SDS011;10205;49.678;6.560;2023-02-28T13:29:59;4.47;;;3.30;;
20090;SDS011;10205;49.678;6.560;2023-02-28T13:32:29;3.57;;;3.27;;
20090;SDS011;10205;49.678;6.560;2023-02-28T13:35:14;3.70;;;3.40;;
20090;SDS011;10205;49.678;6.560;2023-02-28T13:38:32;4.97;;;3.50;;
20090;SDS011;10205;49.678;6.560;2023-02-28T13:44:21;3.53;;;3.20;;
20090;SDS011;10205;49.678;6.560;2023-02-28T13:49:54;3.70;;;3.40;;
20090;SDS011;10205;49.678;6.560;2023-02-28T13:52:48;4.03;;;3.43;;
20090;SDS011;10205;49.678;6.560;2023-02-28T13:55:43;3.80;;;3.23;;
20090;SDS011;10205;49.678;6.560;2023-02-28T13:58:22;3.93;;;3.53;;
20090;SDS011;10205;49.678;6.560;2023-02-28T14:01:21;3.73;;;3.40;;
20090;SDS011;10205;49.678;6.560;2023-02-28T14:07:27;4.73;;;3.23;;
20090;SDS011;10205;49.678;6.560;2023-02-28T14:10:01;5.07;;;3.63;;
20090;SDS011;10205;49.678;6.560;2023-02-28T14:15:41;4.23;;;3.83;;
20090;SDS011;10205;49.678;6.560;2023-02-28T14:18:26;4.47;;;3.60;;
20090;SDS011;10205;49.678;6.560;2023-02-28T14:21:00;3.47;;;3.17;;
20090;SDS011;10205;49.678;6.560;2023-02-28T14:23:43;3.63;;;3.33;;
20090;SDS011;10205;49.678;6.560;2023-02-28T14:27:03;4.00;;;3.37;;
20090;SDS011;10205;49.678;6.560;2023-02-28T14:33:05;6.03;;;4.37;;
20090;SDS011;10205;49.678;6.560;2023-02-28T14:38:41;3.70;;;3.40;;
20090;SDS011;10205;49.678;6.560;2023-02-28T14:41:15;4.23;;;3.50;;
20090;SDS011;10205;49.678;6.560;2023-02-28T14:43:52;4.87;;;4.00;;
20090;SDS011;10205;49.678;6.560;2023-02-28T14:46:27;4.57;;;3.53;;
20090;SDS011;10205;49.678;6.560;2023-02-28T14:49:03;4.03;;;3.60;;
20090;SDS011;10205;49.678;6.560;2023-02-28T14:51:34;3.77;;;3.43;;
20090;SDS011;10205;49.678;6.560;2023-02-28T14:54:02;5.07;;;3.93;;
20090;SDS011;10205;49.678;6.560;2023-02-28T14:56:33;5.65;;;3.50;;
20090;SDS011;10205;49.678;6.560;2023-02-28T15:02:18;3.67;;;3.37;;
20090;SDS011;10205;49.678;6.560;2023-02-28T15:04:55;3.53;;;3.20;;
20090;SDS011;10205;49.678;6.560;2023-02-28T15:07:25;3.63;;;3.33;;
20090;SDS011;10205;49.678;6.560;2023-02-28T15:10:13;4.35;;;3.10;;
20090;SDS011;10205;49.678;6.560;2023-02-28T15:12:46;3.73;;;3.17;;
20090;SDS011;10205;49.678;6.560;2023-02-28T15:15:21;3.60;;;3.30;;
20090;SDS011;10205;49.678;6.560;2023-02-28T15:17:53;3.60;;;3.30;;
20090;SDS011;10205;49.678;6.560;2023-02-28T15:20:23;3.45;;;3.15;;
20090;SDS011;10205;49.678;6.560;2023-02-28T15:22:54;5.23;;;3.70;;
20090;SDS011;10205;49.678;6.560;2023-02-28T15:25:23;3.58;;;3.28;;
20090;SDS011;10205;49.678;6.560;2023-02-28T15:27:52;3.67;;;3.20;;
20090;SDS011;10205;49.678;6.560;2023-02-28T15:30:24;3.53;;;3.23;;
20090;SDS011;10205;49.678;6.560;2023-02-28T15:33:17;4.57;;;3.63;;
20090;SDS011;10205;49.678;6.560;2023-02-28T15:35:47;4.15;;;3.63;;
20090;SDS011;10205;49.678;6.560;2023-02-28T15:38:17;3.53;;;3.20;;
20090;SDS011;10205;49.678;6.560;2023-02-28T15:40:51;4.53;;;3.17;;
20090;SDS011;10205;49.678;6.560;2023-02-28T15:43:23;4.10;;;3.58;;
20090;SDS011;10205;49.678;6.560;2023-02-28T15:45:55;3.63;;;3.30;;
20090;SDS011;10205;49.678;6.560;2023-02-28T15:48:26;3.88;;;3.47;;
20090;SDS011;10205;49.678;6.560;2023-02-28T15:50:57;3.80;;;3.40;;
20090;SDS011;10205;49.678;6.560;2023-02-28T15:53:35;5.97;;;3.87;;
20090;SDS011;10205;49.678;6.560;2023-02-28T15:56:06;6.00;;;3.40;;
20090;SDS011;10205;49.678;6.560;2023-02-28T15:58:50;3.15;;;2.90;;
20090;SDS011;10205;49.678;6.560;2023-02-28T16:01:23;5.93;;;3.75;;